createdAt,value
2022-11-29T00:02:44.066Z,15.13
2022-11-29T00:05:35.144Z,16.23
2022-11-29T00:08:25.242Z,13.87
2022-11-29T00:11:35.327Z,14.60
2022-11-29T00:14:24.573Z,15.00
2022-11-29T00:17:12.985Z,14.20
2022-11-29T00:20:01.405Z,13.57
2022-11-29T00:22:49.895Z,13.80
2022-11-29T00:25:40.496Z,12.50
2022-11-29T00:28:28.953Z,11.70
2022-11-29T00:31:19.652Z,13.13
2022-11-29T00:34:08.223Z,12.00
2022-11-29T00:36:56.833Z,14.67
2022-11-29T00:39:45.331Z,12.60
2022-11-29T00:42:35.155Z,12.53
2022-11-29T00:45:23.605Z,11.57
2022-11-29T00:48:12.071Z,11.60
2022-11-29T00:51:00.718Z,12.13
2022-11-29T00:53:49.157Z,11.43
2022-11-29T00:56:37.591Z,11.30
2022-11-29T00:59:27.345Z,11.70
2022-11-29T01:02:15.788Z,11.37
2022-11-29T01:05:04.338Z,11.73
2022-11-29T01:07:52.854Z,11.90
2022-11-29T01:10:41.797Z,10.90
2022-11-29T01:13:30.272Z,11.07
2022-11-29T01:16:20.234Z,9.93
2022-11-29T01:19:08.688Z,10.40
2022-11-29T01:21:57.129Z,11.60
2022-11-29T01:24:45.852Z,10.00
2022-11-29T01:27:34.997Z,12.43
2022-11-29T01:30:23.443Z,12.33
2022-11-29T01:33:13.220Z,11.77
2022-11-29T01:36:01.678Z,11.83
2022-11-29T01:38:50.147Z,12.07
2022-11-29T01:41:38.900Z,14.07
2022-11-29T01:45:07.802Z,12.50
2022-11-29T01:47:57.722Z,12.53
2022-11-29T01:50:47.570Z,12.73
2022-11-29T01:53:36.050Z,13.37
2022-11-29T01:56:25.510Z,15.37
2022-11-29T01:59:17.087Z,12.70
2022-11-29T02:02:07.739Z,14.30
2022-11-29T02:04:56.227Z,13.50
2022-11-29T02:07:47.857Z,14.30
2022-11-29T02:10:44.471Z,13.20
2022-11-29T02:13:38.938Z,13.60
2022-11-29T02:16:35.408Z,12.67
2022-11-29T02:19:40.600Z,13.77
2022-11-29T02:22:33.461Z,13.83
2022-11-29T02:25:36.708Z,14.17
2022-11-29T02:28:58.225Z,14.93
2022-11-29T02:32:25.229Z,14.60
2022-11-29T02:35:24.539Z,15.40
2022-11-29T02:38:26.242Z,12.30
2022-11-29T02:41:27.570Z,13.23
2022-11-29T02:44:41.265Z,14.90
2022-11-29T02:47:38.828Z,14.40
2022-11-29T02:50:36.037Z,13.80
2022-11-29T02:53:30.673Z,13.47
2022-11-29T02:56:28.508Z,13.33
2022-11-29T02:59:24.694Z,13.53
2022-11-29T03:02:19.500Z,15.47
2022-11-29T03:05:16.965Z,14.07
2022-11-29T03:08:12.129Z,14.50
2022-11-29T03:11:05.825Z,13.33
2022-11-29T03:14:07.649Z,13.70
2022-11-29T03:17:04.599Z,14.50
2022-11-29T03:20:05.370Z,14.03
2022-11-29T03:23:06.145Z,13.93
2022-11-29T03:25:59.242Z,13.97
2022-11-29T03:28:52.964Z,13.37
2022-11-29T03:31:46.178Z,13.20
2022-11-29T03:34:46.343Z,12.53
2022-11-29T03:37:40.898Z,12.50
2022-11-29T03:40:40.097Z,12.87
2022-11-29T03:43:33.546Z,14.20
2022-11-29T03:46:26.250Z,12.10
2022-11-29T03:49:20.319Z,12.23
2022-11-29T03:52:16.362Z,13.90
2022-11-29T03:55:19.393Z,12.57
2022-11-29T03:58:19.255Z,13.70
2022-11-29T04:01:33.824Z,12.80
2022-11-29T04:04:55.397Z,12.47
2022-11-29T04:08:04.564Z,12.30
2022-11-29T04:11:06.221Z,12.50
2022-11-29T04:14:10.951Z,11.50
2022-11-29T04:17:43.198Z,9.97
2022-11-29T04:21:07.527Z,11.37
2022-11-29T04:24:13.495Z,10.43
2022-11-29T04:27:30.956Z,9.17
2022-11-29T04:30:22.845Z,10.33
2022-11-29T04:33:31.133Z,10.43
2022-11-29T04:36:56.554Z,10.13
2022-11-29T04:39:58.869Z,8.57
2022-11-29T04:43:11.634Z,7.80
2022-11-29T04:46:17.437Z,6.80
2022-11-29T04:49:22.184Z,6.47
2022-11-29T04:52:33.965Z,7.60
2022-11-29T04:55:33.294Z,6.53
2022-11-29T04:58:26.555Z,5.67
2022-11-29T05:01:24.450Z,5.10
2022-11-29T05:04:18.498Z,6.20
2022-11-29T05:07:10.378Z,5.53
2022-11-29T05:10:04.949Z,4.93
2022-11-29T05:12:59.252Z,5.00
2022-11-29T05:16:13.678Z,4.93
2022-11-29T05:19:17.520Z,5.40
2022-11-29T05:22:19.498Z,4.63
2022-11-29T05:25:27.020Z,5.40
2022-11-29T05:28:20.329Z,5.90
2022-11-29T05:31:26.905Z,6.10
2022-11-29T05:34:35.231Z,6.60
2022-11-29T05:37:31.933Z,6.37
2022-11-29T05:40:42.127Z,6.43
2022-11-29T05:43:46.680Z,6.00
2022-11-29T05:46:40.934Z,7.57
2022-11-29T05:49:37.845Z,7.50
2022-11-29T05:52:32.885Z,6.27
2022-11-29T05:55:28.700Z,7.90
2022-11-29T05:58:28.591Z,6.60
2022-11-29T06:01:22.997Z,7.83
2022-11-29T06:04:15.302Z,6.77
2022-11-29T06:07:11.536Z,7.30
2022-11-29T06:10:02.386Z,6.43
2022-11-29T06:13:00.203Z,6.20
2022-11-29T06:16:28.275Z,6.77
2022-11-29T06:19:46.951Z,6.70
2022-11-29T06:22:50.581Z,6.43
2022-11-29T06:25:49.222Z,7.30
2022-11-29T06:28:45.664Z,7.30
2022-11-29T06:31:38.515Z,8.57
2022-11-29T06:34:31.568Z,7.80
2022-11-29T06:37:24.509Z,7.87
2022-11-29T06:40:16.791Z,7.97
2022-11-29T06:43:05.766Z,10.00
2022-11-29T06:45:58.642Z,7.50
2022-11-29T06:48:51.348Z,7.80
2022-11-29T06:51:48.481Z,9.03
2022-11-29T06:54:44.630Z,7.87
2022-11-29T06:57:44.500Z,9.30
2022-11-29T07:00:39.430Z,7.60
2022-11-29T07:03:44.476Z,8.37
2022-11-29T07:06:33.243Z,8.30
2022-11-29T07:09:24.174Z,9.03
2022-11-29T07:12:13.483Z,9.40
2022-11-29T07:15:04.025Z,9.70
2022-11-29T07:18:05.632Z,9.53
2022-11-29T07:21:01.681Z,10.63
2022-11-29T07:23:54.638Z,10.93
2022-11-29T07:26:49.186Z,10.30
2022-11-29T07:29:42.063Z,10.47
2022-11-29T07:32:39.548Z,11.43
2022-11-29T07:35:34.995Z,11.47
2022-11-29T07:38:30.810Z,11.23
2022-11-29T07:41:22.369Z,10.60
2022-11-29T07:44:14.158Z,11.80
2022-11-29T07:47:02.726Z,12.37
2022-11-29T07:49:52.684Z,12.87
2022-11-29T07:52:41.152Z,13.03
2022-11-29T07:55:30.062Z,14.03
2022-11-29T07:58:19.497Z,14.20
2022-11-29T08:01:08.437Z,13.07
2022-11-29T08:03:56.965Z,13.77
2022-11-29T08:06:47.120Z,14.07
2022-11-29T08:09:35.574Z,13.73
2022-11-29T08:12:24.052Z,14.63
2022-11-29T08:15:13.316Z,16.47
2022-11-29T08:18:02.713Z,16.00
2022-11-29T08:20:51.188Z,15.80
2022-11-29T08:23:40.964Z,14.63
2022-11-29T08:26:31.937Z,15.83
2022-11-29T08:29:20.705Z,14.90
2022-11-29T08:32:09.969Z,16.60
2022-11-29T08:34:58.577Z,16.67
2022-11-29T08:37:47.145Z,18.30
2022-11-29T08:40:36.980Z,18.97
2022-11-29T08:43:25.472Z,19.77
2022-11-29T08:46:18.580Z,19.33
2022-11-29T08:49:07.538Z,21.97
2022-11-29T08:52:16.196Z,23.77
2022-11-29T08:55:03.947Z,20.03
2022-11-29T08:57:55.178Z,21.00
2022-11-29T09:00:45.474Z,23.40
2022-11-29T09:03:51.863Z,23.70
2022-11-29T09:06:42.828Z,24.97
2022-11-29T09:09:32.056Z,23.10
2022-11-29T09:12:20.544Z,24.87
2022-11-29T09:15:11.694Z,23.23
2022-11-29T09:18:00.193Z,24.37
2022-11-29T09:20:48.634Z,23.63
2022-11-29T09:23:37.320Z,26.40
2022-11-29T09:26:27.297Z,24.07
2022-11-29T09:29:16.914Z,23.30
2022-11-29T09:32:07.374Z,27.13
2022-11-29T09:34:55.946Z,26.10
2022-11-29T09:37:44.478Z,26.30
2022-11-29T09:40:35.191Z,23.90
2022-11-29T09:43:28.721Z,23.37
2022-11-29T09:46:21.196Z,24.10
2022-11-29T09:49:30.342Z,22.97
2022-11-29T09:52:26.216Z,23.10
2022-11-29T09:55:38.956Z,21.60
2022-11-29T09:58:31.294Z,22.10
2022-11-29T10:01:22.860Z,23.67
2022-11-29T10:04:14.817Z,24.00
2022-11-29T10:07:07.979Z,23.80
2022-11-29T10:09:59.412Z,24.50
2022-11-29T10:12:50.175Z,24.17
2022-11-29T10:15:41.239Z,23.60
2022-11-29T10:18:33.551Z,25.17
2022-11-29T10:21:26.071Z,25.33
2022-11-29T10:24:18.372Z,27.60
2022-11-29T10:27:12.029Z,26.13
2022-11-29T10:30:02.475Z,27.57
2022-11-29T10:32:55.890Z,30.00
2022-11-29T10:35:44.723Z,29.20
2022-11-29T10:38:33.182Z,28.73
2022-11-29T10:41:23.751Z,31.30
2022-11-29T10:44:14.726Z,28.10
2022-11-29T10:47:09.303Z,30.33
2022-11-29T10:49:59.467Z,30.97
2022-11-29T10:52:47.917Z,29.30
2022-11-29T10:55:41.844Z,30.03
2022-11-29T10:58:32.387Z,29.37
2022-11-29T11:01:20.869Z,28.53
2022-11-29T11:04:16.114Z,29.17
2022-11-29T11:07:06.133Z,29.53
2022-11-29T11:09:56.891Z,27.73
2022-11-29T11:13:02.187Z,30.10
2022-11-29T11:15:57.429Z,30.23
2022-11-29T11:18:48.006Z,28.03
2022-11-29T11:21:39.395Z,28.63
2022-11-29T11:24:29.916Z,30.13
2022-11-29T11:27:29.986Z,33.00
2022-11-29T11:30:22.662Z,30.17
2022-11-29T11:33:20.121Z,30.73
2022-11-29T11:36:12.590Z,28.87
2022-11-29T11:39:12.653Z,30.10
2022-11-29T11:42:20.898Z,32.50
2022-11-29T11:45:33.948Z,31.17
2022-11-29T11:48:23.943Z,30.70
2022-11-29T11:51:22.909Z,30.80
2022-11-29T11:54:15.196Z,30.23
2022-11-29T11:57:04.498Z,31.60
2022-11-29T11:59:55.203Z,33.40
2022-11-29T12:02:45.399Z,34.47
2022-11-29T12:05:35.320Z,35.63
2022-11-29T12:08:24.973Z,35.13
2022-11-29T12:11:16.308Z,34.13
2022-11-29T12:14:05.981Z,37.07
2022-11-29T12:17:02.373Z,35.07
2022-11-29T12:20:04.327Z,33.63
2022-11-29T12:23:06.459Z,33.00
2022-11-29T12:25:58.321Z,35.70
2022-11-29T12:28:47.414Z,33.40
2022-11-29T12:31:46.052Z,33.40
2022-11-29T12:34:43.989Z,33.27
2022-11-29T12:37:38.786Z,31.60
2022-11-29T12:40:33.224Z,31.57
2022-11-29T12:43:30.183Z,34.50
2022-11-29T12:46:24.559Z,33.60
2022-11-29T12:49:19.073Z,30.80
2022-11-29T12:52:11.448Z,32.80
2022-11-29T12:55:06.519Z,32.27
2022-11-29T12:58:01.579Z,29.70
2022-11-29T13:00:55.621Z,34.60
2022-11-29T13:03:46.503Z,32.40
2022-11-29T13:06:43.388Z,33.17
2022-11-29T13:10:02.545Z,32.17
2022-11-29T13:12:53.749Z,31.57
2022-11-29T13:15:49.935Z,32.80
2022-11-29T13:18:42.252Z,32.40
2022-11-29T13:21:33.331Z,30.17
2022-11-29T13:24:26.357Z,29.33
2022-11-29T13:27:19.287Z,30.87
2022-11-29T13:30:09.087Z,30.33
2022-11-29T13:33:03.707Z,30.97
2022-11-29T13:35:57.695Z,30.10
2022-11-29T13:38:53.573Z,29.20
2022-11-29T13:41:47.683Z,28.97
2022-11-29T13:44:41.179Z,29.20
2022-11-29T13:47:30.003Z,28.87
2022-11-29T13:50:40.406Z,29.47
2022-11-29T13:53:48.262Z,28.97
2022-11-29T13:56:46.220Z,29.00
2022-11-29T13:59:38.318Z,27.10
2022-11-29T14:02:31.651Z,29.00
2022-11-29T14:05:25.819Z,29.40
2022-11-29T14:08:42.433Z,26.53
2022-11-29T14:11:46.698Z,27.17
2022-11-29T14:14:40.209Z,26.73
2022-11-29T14:17:47.337Z,29.07
2022-11-29T14:20:46.460Z,28.17
2022-11-29T14:23:39.012Z,26.97
2022-11-29T14:26:29.907Z,26.83
2022-11-29T14:29:53.888Z,26.03
2022-11-29T14:32:51.591Z,24.23
2022-11-29T14:35:44.961Z,23.93
2022-11-29T14:38:41.286Z,26.00
2022-11-29T14:41:34.279Z,25.50
2022-11-29T14:44:26.052Z,27.13
2022-11-29T14:47:29.765Z,26.43
2022-11-29T14:50:31.355Z,24.23
2022-11-29T14:53:29.562Z,24.40
2022-11-29T14:56:43.374Z,21.30
2022-11-29T14:59:51.390Z,23.50
2022-11-29T15:02:42.529Z,24.00
2022-11-29T15:05:33.670Z,24.00
2022-11-29T15:08:33.317Z,23.30
2022-11-29T15:11:38.396Z,20.80
2022-11-29T15:14:32.951Z,22.17
2022-11-29T15:17:31.166Z,21.87
2022-11-29T15:20:56.675Z,22.97
2022-11-29T15:23:45.331Z,22.00
2022-11-29T15:26:34.085Z,21.87
2022-11-29T15:29:24.503Z,23.50
2022-11-29T15:32:14.696Z,22.90
2022-11-29T15:35:03.354Z,21.23
2022-11-29T15:37:53.219Z,23.00
2022-11-29T15:40:44.948Z,21.90
2022-11-29T15:43:36.090Z,24.30
2022-11-29T15:46:27.760Z,22.30
2022-11-29T15:49:16.944Z,21.83
2022-11-29T15:52:10.846Z,24.77
2022-11-29T15:55:01.258Z,21.80
2022-11-29T15:57:52.447Z,22.70
2022-11-29T16:00:41.385Z,23.17
2022-11-29T16:03:34.423Z,23.87
2022-11-29T16:06:27.533Z,23.70
2022-11-29T16:09:18.922Z,24.03
2022-11-29T16:12:10.774Z,24.40
2022-11-29T16:15:00.680Z,23.40
2022-11-29T16:17:49.218Z,25.00
2022-11-29T16:20:39.320Z,23.80
2022-11-29T16:23:34.218Z,24.03
2022-11-29T16:26:24.237Z,23.13
2022-11-29T16:29:21.428Z,23.33
2022-11-29T16:32:14.979Z,25.40
2022-11-29T16:35:08.497Z,28.40
2022-11-29T16:37:58.446Z,27.00
2022-11-29T16:41:02.234Z,24.73
2022-11-29T16:43:55.152Z,23.97
2022-11-29T16:46:43.745Z,23.60
2022-11-29T16:49:35.529Z,25.57
2022-11-29T16:52:25.632Z,25.90
2022-11-29T16:55:16.019Z,26.70
2022-11-29T16:58:06.158Z,27.30
2022-11-29T17:00:55.337Z,24.27
2022-11-29T17:03:43.871Z,23.47
2022-11-29T17:06:32.576Z,25.33
2022-11-29T17:09:24.500Z,24.60
2022-11-29T17:12:15.043Z,25.00
2022-11-29T17:15:04.247Z,24.23
2022-11-29T17:17:52.880Z,26.97
2022-11-29T17:20:41.631Z,26.90
2022-11-29T17:23:30.169Z,25.60
2022-11-29T17:26:19.081Z,26.30
2022-11-29T17:29:10.721Z,26.97
2022-11-29T17:31:59.380Z,27.57
2022-11-29T17:34:48.266Z,29.43
2022-11-29T17:37:36.837Z,29.17
2022-11-29T17:40:25.326Z,29.70
2022-11-29T17:43:13.805Z,30.00
2022-11-29T17:46:09.291Z,30.03
2022-11-29T17:49:00.168Z,28.27
2022-11-29T17:51:53.267Z,27.20
2022-11-29T17:54:42.017Z,27.37
2022-11-29T17:57:30.499Z,26.57
2022-11-29T18:00:20.251Z,26.23
2022-11-29T18:03:10.153Z,28.70
2022-11-29T18:06:00.006Z,26.70
2022-11-29T18:08:50.274Z,22.27
2022-11-29T18:11:46.810Z,23.83
2022-11-29T18:14:38.225Z,25.73
2022-11-29T18:17:26.829Z,25.23
2022-11-29T18:20:16.749Z,28.70
2022-11-29T18:23:08.159Z,27.30
2022-11-29T18:26:00.529Z,26.20
2022-11-29T18:28:49.631Z,27.00
2022-11-29T18:31:39.810Z,25.17
2022-11-29T18:34:28.271Z,24.17
2022-11-29T18:37:39.003Z,28.10
2022-11-29T18:40:26.635Z,28.23
2022-11-29T18:43:17.228Z,27.47
2022-11-29T18:46:09.993Z,26.57
2022-11-29T18:48:58.986Z,29.10
2022-11-29T18:51:48.608Z,29.87
2022-11-29T18:54:38.431Z,28.80
2022-11-29T18:57:27.033Z,29.20
2022-11-29T19:00:16.704Z,26.87
2022-11-29T19:03:05.288Z,29.67
2022-11-29T19:05:54.288Z,27.20
2022-11-29T19:08:43.515Z,27.00
2022-11-29T19:11:34.322Z,28.10
2022-11-29T19:14:22.829Z,25.57
2022-11-29T19:17:11.363Z,27.30
2022-11-29T19:19:59.883Z,25.53
2022-11-29T19:22:48.778Z,25.07
2022-11-29T19:25:37.255Z,27.70
2022-11-29T19:28:28.374Z,26.30
2022-11-29T19:31:19.999Z,24.40
2022-11-29T19:34:08.716Z,24.23
2022-11-29T19:36:57.222Z,26.87
2022-11-29T19:39:46.079Z,26.50
2022-11-29T19:42:34.817Z,26.43
2022-11-29T19:45:24.653Z,27.90
2022-11-29T19:48:13.259Z,29.20
2022-11-29T19:51:01.827Z,27.10
2022-11-29T19:53:53.492Z,27.40
2022-11-29T19:56:42.173Z,27.63
2022-11-29T19:59:30.688Z,24.80
2022-11-29T20:02:20.675Z,26.30
2022-11-29T20:05:09.734Z,27.07
2022-11-29T20:07:58.279Z,26.27
2022-11-29T20:10:46.957Z,26.73
2022-11-29T20:13:35.500Z,25.23
2022-11-29T20:16:24.893Z,24.10
2022-11-29T20:19:16.998Z,22.77
2022-11-29T20:22:05.577Z,23.20
2022-11-29T20:24:54.688Z,22.23
2022-11-29T20:27:43.415Z,21.87
2022-11-29T20:30:32.008Z,23.47
2022-11-29T20:33:23.371Z,23.60
2022-11-29T20:36:21.801Z,27.00
2022-11-29T20:39:21.873Z,24.07
2022-11-29T20:42:46.843Z,23.27
2022-11-29T20:45:35.697Z,28.97
2022-11-29T20:48:24.824Z,25.70
2022-11-29T20:51:13.823Z,25.40
2022-11-29T20:54:03.757Z,26.60
2022-11-29T20:56:52.246Z,26.00
2022-11-29T20:59:40.763Z,25.80
2022-11-29T21:02:29.415Z,29.77
2022-11-29T21:05:18.024Z,25.50
2022-11-29T21:08:06.607Z,23.80
2022-11-29T21:11:03.110Z,24.30
2022-11-29T21:13:52.432Z,25.07
2022-11-29T21:16:41.310Z,25.37
2022-11-29T21:19:30.540Z,23.33
2022-11-29T21:22:24.865Z,23.77
2022-11-29T21:25:17.398Z,24.13
2022-11-29T21:28:12.708Z,23.17
2022-11-29T21:31:02.237Z,22.20
2022-11-29T21:33:51.532Z,24.50
2022-11-29T21:36:40.476Z,20.73
2022-11-29T21:39:33.514Z,21.50
2022-11-29T21:42:22.282Z,21.30
2022-11-29T21:45:15.674Z,21.97
2022-11-29T21:48:24.723Z,20.07
2022-11-29T21:51:13.371Z,21.20
2022-11-29T21:54:02.260Z,21.97
2022-11-29T21:56:50.845Z,22.70
2022-11-29T21:59:39.483Z,21.23
2022-11-29T22:02:29.522Z,20.77
2022-11-29T22:05:18.398Z,23.67
2022-11-29T22:08:07.420Z,23.67
2022-11-29T22:11:01.774Z,25.53
2022-11-29T22:14:07.710Z,24.03
2022-11-29T22:16:58.647Z,23.30
2022-11-29T22:19:48.584Z,23.33
2022-11-29T22:22:37.580Z,22.03
2022-11-29T22:25:26.381Z,21.80
2022-11-29T22:28:15.085Z,21.87
2022-11-29T22:31:05.888Z,21.37
2022-11-29T22:33:55.185Z,22.03
2022-11-29T22:36:45.604Z,21.13
2022-11-29T22:39:34.309Z,22.47
2022-11-29T22:42:22.825Z,21.17
2022-11-29T22:45:12.689Z,19.73
2022-11-29T22:48:01.260Z,21.33
2022-11-29T22:50:49.818Z,19.80
2022-11-29T22:53:40.821Z,20.87
2022-11-29T22:56:30.933Z,20.27
2022-11-29T22:59:19.739Z,22.47
2022-11-29T23:02:08.480Z,22.13
2022-11-29T23:04:57.070Z,23.13
2022-11-29T23:07:47.065Z,22.77
2022-11-29T23:10:37.117Z,21.97
2022-11-29T23:13:25.782Z,23.57
2022-11-29T23:16:15.759Z,21.40
2022-11-29T23:19:04.358Z,21.90
2022-11-29T23:21:53.196Z,19.67
2022-11-29T23:24:42.558Z,20.97
2022-11-29T23:27:32.397Z,20.90
2022-11-29T23:30:20.986Z,21.03
2022-11-29T23:33:09.584Z,22.23
2022-11-29T23:36:02.368Z,20.60
2022-11-29T23:38:51.314Z,20.50
2022-11-29T23:41:40.220Z,21.07
2022-11-29T23:44:30.162Z,21.33
2022-11-29T23:47:18.762Z,22.73
2022-11-29T23:50:09.347Z,22.87
2022-11-29T23:52:58.438Z,22.57
2022-11-29T23:55:47.908Z,23.50
2022-11-29T23:58:36.677Z,25.07
